Terminal Aerodrome Forecast
Issued by NWS

Home | Current Version | Previous Version | Text Only | Print | Product List | Glossary On
Versions: 1 2 3 4 5 6 7 8 9 10 11 12 13 14 15
000
FTUS44 KLZK 200500
TAFHOT
TAF
KHOT 200520Z 2006/2106 07003KT 6SM BR BKN009 OVC040
      TEMPO 2006/2009 3SM BR
     FM200900 07003KT 2SM BR OVC003
      TEMPO 2010/2014 1/2SM FG VV001
     FM201530 08003KT 5SM BR OVC007
     FM201700 12003KT P6SM OVC015
     FM202100 13004KT P6SM BKN020
     FM210300 15005KT P6SM SCT030=

USA.gov is the U.S. government's official web portal to all federal, state and local government web resources and services.